Time,TemperatureF,DewpointF,PressureIn,WindDirection,WindDirectionDegrees,WindSpeedMPH,WindSpeedGustMPH,Humidity,HourlyPrecipIn,Conditions,Clouds,dailyrainin,SoftwareType,DateUTC
2013-01-19 00:04:00,1.6,-1.4,30.89,NNW,338,0.0,0.0,87,0.00,,---,0.00,VWS V14.01,2013-01-19 07:04:00,
2013-01-19 00:09:00,1.8,-1.2,30.89,NNW,338,0.0,0.0,87,0.00,,---,0.00,VWS V14.01,2013-01-19 07:09:00,
2013-01-19 00:14:00,1.7,-1.3,30.89,NNW,338,0.0,0.0,87,0.00,,---,0.00,VWS V14.01,2013-01-19 07:14:00,
2013-01-19 00:19:00,1.5,-1.7,30.89,NNW,338,2.0,2.0,86,0.00,,---,0.00,VWS V14.01,2013-01-19 07:19:00,
2013-01-19 00:24:00,1.6,-1.6,30.89,NNW,338,0.0,2.0,86,0.00,,---,0.00,VWS V14.01,2013-01-19 07:24:00,
2013-01-19 00:29:00,1.1,-2.3,30.89,NNW,338,2.0,2.0,85,0.00,,---,0.00,VWS V14.01,2013-01-19 07:29:00,
2013-01-19 00:34:00,1.0,-2.5,30.89,NNW,338,5.0,5.0,85,0.00,,---,0.00,VWS V14.01,2013-01-19 07:34:00,
2013-01-19 00:39:00,1.4,-1.8,30.89,NNW,338,0.0,0.0,86,0.00,,---,0.00,VWS V14.01,2013-01-19 07:39:00,
2013-01-19 00:44:00,1.7,-1.5,30.89,NNW,338,0.0,0.0,86,0.00,,---,0.00,VWS V14.01,2013-01-19 07:44:00,
2013-01-19 00:49:00,1.5,-2.0,30.89,NNW,338,0.0,0.0,85,0.00,,---,0.00,VWS V14.01,2013-01-19 07:49:00,
2013-01-19 00:54:00,1.4,-2.0,30.89,NNW,338,0.0,0.0,85,0.00,,---,0.00,VWS V14.01,2013-01-19 07:54:00,
2013-01-19 00:59:00,1.4,-1.8,30.89,NNW,338,0.0,0.0,86,0.00,,---,0.00,VWS V14.01,2013-01-19 07:59:00,
2013-01-19 01:04:00,1.4,-1.8,30.89,NNW,338,2.0,2.0,86,0.00,,---,0.00,VWS V14.01,2013-01-19 08:04:00,
2013-01-19 01:09:00,1.9,-1.1,30.89,NNW,338,0.0,0.0,87,0.00,,---,0.00,VWS V14.01,2013-01-19 08:09:00,
2013-01-19 01:14:00,1.8,-1.4,30.89,NNW,338,0.0,0.0,86,0.00,,---,0.00,VWS V14.01,2013-01-19 08:14:00,
2013-01-19 01:19:00,1.5,-2.0,30.89,NNW,338,1.0,1.0,85,0.00,,---,0.00,VWS V14.01,2013-01-19 08:19:00,
2013-01-19 01:24:00,1.1,-2.6,30.89,NNW,338,0.0,0.0,84,0.00,,---,0.00,VWS V14.01,2013-01-19 08:24:00,
2013-01-19 01:29:00,1.0,-2.5,30.89,NNW,338,0.0,0.0,85,0.00,,---,0.00,VWS V14.01,2013-01-19 08:29:00,
2013-01-19 01:34:00,1.1,-2.1,30.90,NNW,338,0.0,0.0,86,0.00,,---,0.00,VWS V14.01,2013-01-19 08:34:00,
2013-01-19 01:39:00,1.2,-1.8,30.90,NNW,338,2.0,2.0,87,0.00,,---,0.00,VWS V14.01,2013-01-19 08:39:00,
2013-01-19 01:44:00,1.3,-1.7,30.90,NNW,338,0.0,1.0,87,0.00,,---,0.00,VWS V14.01,2013-01-19 08:44:00,
2013-01-19 01:49:00,0.9,-2.5,30.90,NNW,338,0.0,0.0,85,0.00,,---,0.00,VWS V14.01,2013-01-19 08:49:00,
2013-01-19 01:54:00,0.6,-2.8,30.90,NNW,338,0.0,0.0,85,0.00,,---,0.00,VWS V14.01,2013-01-19 08:54:00,
2013-01-19 01:59:00,0.8,-2.4,30.90,NNW,338,0.0,0.0,86,0.00,,---,0.00,VWS V14.01,2013-01-19 08:59:00,
2013-01-19 02:04:00,0.6,-2.8,30.90,NNW,338,0.0,1.0,85,0.00,,---,0.00,VWS V14.01,2013-01-19 09:04:00,
2013-01-19 02:09:00,0.6,-2.6,30.90,NNW,338,0.0,0.0,86,0.00,,---,0.00,VWS V14.01,2013-01-19 09:09:00,
2013-01-19 02:14:00,0.9,-2.0,30.91,NNW,338,0.0,0.0,87,0.00,,---,0.00,VWS V14.01,2013-01-19 09:14:00,
2013-01-19 02:19:00,0.9,-2.3,30.91,NNW,338,0.0,1.0,86,0.00,,---,0.00,VWS V14.01,2013-01-19 09:19:00,
2013-01-19 02:24:00,0.8,-2.4,30.90,NNW,338,0.0,0.0,86,0.00,,---,0.00,VWS V14.01,2013-01-19 09:24:00,
2013-01-19 02:29:00,0.9,-2.3,30.91,NNW,341,8.0,9.0,86,0.00,,---,0.00,VWS V14.01,2013-01-19 09:29:00,
2013-01-19 02:34:00,1.6,-1.9,30.91,NNW,329,1.0,2.0,85,0.00,,---,0.00,VWS V14.01,2013-01-19 09:34:00,
2013-01-19 02:39:00,0.7,-4.0,30.91,NNW,329,0.0,0.0,80,0.00,,---,0.00,VWS V14.01,2013-01-19 09:39:00,
2013-01-19 02:44:00,-0.2,-4.9,30.91,NNW,329,0.0,0.0,80,0.00,,---,0.00,VWS V14.01,2013-01-19 09:44:00,
2013-01-19 02:49:00,-0.7,-5.1,30.91,NNW,329,0.0,0.0,81,0.00,,---,0.00,VWS V14.01,2013-01-19 09:49:00,
2013-01-19 02:54:00,-0.5,-4.2,30.90,NNW,329,9.0,9.0,84,0.00,,---,0.00,VWS V14.01,2013-01-19 09:54:00,
2013-01-19 02:59:00,0.4,-3.0,30.91,NNW,329,7.0,7.0,85,0.00,,---,0.00,VWS V14.01,2013-01-19 09:59:00,
2013-01-19 03:04:00,0.1,-4.2,30.91,WNW,288,4.0,5.0,82,0.00,,---,0.00,VWS V14.01,2013-01-19 10:04:00,
2013-01-19 03:09:00,-0.9,-5.1,30.92,WNW,288,0.0,0.0,82,0.00,,---,0.00,VWS V14.01,2013-01-19 10:09:00,
2013-01-19 03:14:00,-1.1,-5.0,30.91,WNW,288,0.0,0.0,83,0.00,,---,0.00,VWS V14.01,2013-01-19 10:14:00,
2013-01-19 03:19:00,-1.2,-4.8,30.91,WNW,288,2.0,2.0,84,0.00,,---,0.00,VWS V14.01,2013-01-19 10:19:00,
2013-01-19 03:25:00,-0.3,-3.2,30.92,WNW,296,4.0,5.0,87,0.00,,---,0.00,VWS V14.01,2013-01-19 10:25:00,
2013-01-19 03:30:00,0.6,-2.3,30.92,WNW,296,2.0,2.0,87,0.00,,---,0.00,VWS V14.01,2013-01-19 10:30:00,
2013-01-19 03:35:00,-1.3,-5.7,30.92,WNW,294,3.0,3.0,81,0.00,,---,0.00,VWS V14.01,2013-01-19 10:35:00,
2013-01-19 03:40:00,-2.0,-6.1,30.92,WNW,294,3.0,3.0,82,0.00,,---,0.00,VWS V14.01,2013-01-19 10:40:00,
2013-01-19 03:45:00,-1.3,-4.7,30.92,WNW,292,4.0,4.0,85,0.00,,---,0.00,VWS V14.01,2013-01-19 10:45:00,
2013-01-19 03:50:00,-1.2,-4.4,30.92,WNW,293,3.0,3.0,86,0.00,,---,0.00,VWS V14.01,2013-01-19 10:50:00,
2013-01-19 03:55:00,-0.4,-3.6,30.92,NNW,347,1.0,5.0,86,0.00,,---,0.00,VWS V14.01,2013-01-19 10:55:00,
2013-01-19 04:00:00,-0.6,-4.3,30.93,NNW,327,1.0,3.0,84,0.00,,---,0.00,VWS V14.01,2013-01-19 11:00:00,
2013-01-19 04:05:00,-2.3,-7.5,30.92,NNW,327,2.0,2.0,78,0.00,,---,0.00,VWS V14.01,2013-01-19 11:05:00,
2013-01-19 04:10:00,-2.5,-6.6,30.93,NNW,340,6.0,6.0,82,0.00,,---,0.00,VWS V14.01,2013-01-19 11:10:00,
2013-01-19 04:15:00,-1.1,-4.3,30.94,NNW,348,3.0,3.0,86,0.00,,---,0.00,VWS V14.01,2013-01-19 11:15:00,
2013-01-19 05:47:00,-3.2,-7.3,30.96,NNW,340,2.0,2.0,82,0.00,,---,0.00,VWS V14.01,2013-01-19 12:47:00,
2013-01-19 05:48:00,-3.1,-7.0,30.96,NNW,340,3.0,3.0,83,0.00,,---,0.00,VWS V14.01,2013-01-19 12:48:00,
2013-01-19 05:54:00,-1.5,-4.4,30.97,NNW,340,0.0,0.0,87,0.00,,---,0.00,VWS V14.01,2013-01-19 12:54:00,
2013-01-19 05:59:00,-1.4,-4.3,30.96,NNW,340,0.0,0.0,87,0.00,,---,0.00,VWS V14.01,2013-01-19 12:59:00,
2013-01-19 06:04:00,-1.6,-4.8,30.96,NNW,340,0.0,0.0,86,0.00,,---,0.00,VWS V14.01,2013-01-19 13:04:00,
2013-01-19 06:09:00,-1.8,-5.2,30.96,NNW,340,0.0,0.0,85,0.00,,---,0.00,VWS V14.01,2013-01-19 13:09:00,
2013-01-19 06:14:00,-1.9,-5.1,30.96,NNW,340,0.0,0.0,86,0.00,,---,0.00,VWS V14.01,2013-01-19 13:14:00,
2013-01-19 06:19:00,-2.3,-5.7,30.95,NNW,340,1.0,1.0,85,0.00,,---,0.00,VWS V14.01,2013-01-19 13:19:00,
2013-01-19 06:24:00,-2.3,-5.7,30.95,NNW,340,2.0,2.0,85,0.00,,---,0.00,VWS V14.01,2013-01-19 13:24:00,
2013-01-19 06:29:00,-1.8,-5.0,30.95,NNW,340,0.0,1.0,86,0.00,,---,0.00,VWS V14.01,2013-01-19 13:29:00,
2013-01-19 06:34:00,-2.2,-5.6,30.96,NNW,340,2.0,3.0,85,0.00,,---,0.00,VWS V14.01,2013-01-19 13:34:00,
2013-01-19 06:39:00,-2.6,-6.2,30.96,NNW,340,1.0,2.0,84,0.00,,---,0.00,VWS V14.01,2013-01-19 13:39:00,
2013-01-19 06:44:00,-2.9,-6.5,30.95,NNW,340,0.0,0.0,84,0.00,,---,0.00,VWS V14.01,2013-01-19 13:44:00,
2013-01-19 06:49:00,-2.9,-6.5,30.96,NNW,338,3.0,3.0,84,0.00,,---,0.00,VWS V14.01,2013-01-19 13:49:00,
2013-01-19 06:54:00,-3.5,-7.4,30.96,NNW,337,0.0,0.0,83,0.00,,---,0.00,VWS V14.01,2013-01-19 13:54:00,
2013-01-19 06:59:00,-3.8,-7.7,30.97,NNW,337,1.0,2.0,83,0.00,,---,0.00,VWS V14.01,2013-01-19 13:59:00,
2013-01-19 07:04:00,-3.9,-7.5,30.97,NNW,337,1.0,2.0,84,0.00,,---,0.00,VWS V14.01,2013-01-19 14:04:00,
2013-01-19 07:09:00,-5.0,-9.3,30.97,NNW,337,1.0,2.0,81,0.00,,---,0.00,VWS V14.01,2013-01-19 14:09:00,
2013-01-19 07:14:00,-6.1,-10.9,30.98,NNW,337,0.0,0.0,79,0.00,,---,0.00,VWS V14.01,2013-01-19 14:14:00,
2013-01-19 07:19:00,-6.1,-9.9,30.99,NNW,337,2.0,2.0,83,0.00,,---,0.00,VWS V14.01,2013-01-19 14:19:00,
2013-01-19 07:24:00,-5.2,-8.3,30.99,NNW,337,1.0,2.0,86,0.00,,---,0.00,VWS V14.01,2013-01-19 14:24:00,
2013-01-19 07:29:00,-4.4,-7.5,30.99,NNW,337,1.0,2.0,86,0.00,,---,0.00,VWS V14.01,2013-01-19 14:29:00,
2013-01-19 07:34:00,-3.7,-6.6,30.99,NNW,337,0.0,0.0,87,0.00,,---,0.00,VWS V14.01,2013-01-19 14:34:00,
2013-01-19 07:39:00,-3.3,-6.2,30.99,NNW,337,1.0,1.0,87,0.00,,---,0.00,VWS V14.01,2013-01-19 14:39:00,
2013-01-19 07:44:00,-3.4,-6.5,30.99,NNW,337,0.0,0.0,86,0.00,,---,0.00,VWS V14.01,2013-01-19 14:44:00,
2013-01-19 07:49:00,-3.2,-6.3,30.99,NNW,337,0.0,0.0,86,0.00,,---,0.00,VWS V14.01,2013-01-19 14:49:00,
2013-01-19 07:54:00,-1.8,-4.7,30.99,NNW,337,0.0,0.0,87,0.00,,---,0.00,VWS V14.01,2013-01-19 14:54:00,
2013-01-19 07:59:00,-1.4,-4.3,30.99,NNW,337,1.0,1.0,87,0.00,,---,0.00,VWS V14.01,2013-01-19 14:59:00,
2013-01-19 08:04:00,-0.1,-3.0,31.00,NNW,337,0.0,0.0,87,0.00,,---,0.00,VWS V14.01,2013-01-19 15:04:00,
2013-01-19 08:09:00,-0.2,-3.6,31.00,NNW,337,2.0,2.0,85,0.00,,---,0.00,VWS V14.01,2013-01-19 15:09:00,
2013-01-19 08:14:00,-1.9,-6.0,31.00,NNW,337,2.0,2.0,82,0.00,,---,0.00,VWS V14.01,2013-01-19 15:14:00,
2013-01-19 08:19:00,-3.7,-7.8,31.00,NNW,338,1.0,1.0,82,0.00,,---,0.00,VWS V14.01,2013-01-19 15:19:00,
2013-01-19 08:24:00,-4.3,-8.1,31.01,NNW,337,0.0,0.0,83,0.00,,---,0.00,VWS V14.01,2013-01-19 15:24:00,
2013-01-19 08:29:00,-3.2,-6.6,31.01,NNW,338,0.0,0.0,85,0.00,,---,0.00,VWS V14.01,2013-01-19 15:29:00,
2013-01-19 08:34:00,-1.8,-5.2,31.02,NNW,337,0.0,0.0,85,0.00,,---,0.00,VWS V14.01,2013-01-19 15:34:00,
2013-01-19 08:39:00,-3.7,-7.8,31.02,NNW,337,0.0,0.0,82,0.00,,---,0.00,VWS V14.01,2013-01-19 15:39:00,
2013-01-19 08:44:00,-3.0,-6.4,31.02,NNW,337,0.0,0.0,85,0.00,,---,0.00,VWS V14.01,2013-01-19 15:44:00,
2013-01-19 08:49:00,-1.4,-5.1,31.03,NNW,337,0.0,0.0,84,0.00,,---,0.00,VWS V14.01,2013-01-19 15:49:00,
2013-01-19 08:54:00,-3.0,-6.9,31.03,NNW,337,0.0,0.0,83,0.00,,---,0.00,VWS V14.01,2013-01-19 15:54:00,
2013-01-19 08:59:00,-3.0,-6.4,31.04,NNW,337,0.0,0.0,85,0.00,,---,0.00,VWS V14.01,2013-01-19 15:59:00,
2013-01-19 09:04:00,-0.8,-4.0,31.04,NNW,337,0.0,2.0,86,0.00,,---,0.00,VWS V14.01,2013-01-19 16:04:00,
2013-01-19 09:09:00,0.9,-2.5,31.05,NNW,337,0.0,0.0,85,0.00,,---,0.00,VWS V14.01,2013-01-19 16:09:00,
2013-01-19 09:14:00,-0.8,-5.0,31.06,NNW,337,2.0,2.0,82,0.00,,---,0.00,VWS V14.01,2013-01-19 16:14:00,
2013-01-19 09:19:00,-2.4,-6.5,31.07,NNW,337,0.0,0.0,82,0.00,,---,0.00,VWS V14.01,2013-01-19 16:19:00,
2013-01-19 09:24:00,-0.1,-3.2,31.07,NNW,337,2.0,2.0,86,0.00,,---,0.00,VWS V14.01,2013-01-19 16:24:00,
2013-01-19 09:29:00,3.6,0.1,31.07,NNW,337,1.0,2.0,85,0.00,,---,0.00,VWS V14.01,2013-01-19 16:29:00,
2013-01-19 09:34:00,3.2,-1.0,31.07,NNW,337,1.0,2.0,82,0.00,,---,0.00,VWS V14.01,2013-01-19 16:34:00,
2013-01-19 09:39:00,1.5,-2.7,31.07,NNW,337,3.0,4.0,82,0.00,,---,0.00,VWS V14.01,2013-01-19 16:39:00,
2013-01-19 09:44:00,1.5,-2.2,31.07,NNW,336,2.0,3.0,84,0.00,,---,0.00,VWS V14.01,2013-01-19 16:44:00,
2013-01-19 09:49:00,3.4,-0.1,31.08,NNW,335,3.0,4.0,85,0.00,,---,0.00,VWS V14.01,2013-01-19 16:49:00,
2013-01-19 09:54:00,3.5,-0.5,31.08,NNW,333,3.0,3.0,83,0.00,,---,0.00,VWS V14.01,2013-01-19 16:54:00,
2013-01-19 10:00:00,4.2,0.2,31.08,NNW,333,2.0,2.0,83,0.00,,---,0.00,VWS V14.01,2013-01-19 17:00:00,
2013-01-19 10:05:00,4.4,0.1,31.08,NNW,333,2.0,3.0,82,0.00,,---,0.00,VWS V14.01,2013-01-19 17:05:00,
2013-01-19 10:10:00,7.3,3.0,31.08,NNW,333,0.0,0.0,82,0.00,,---,0.00,VWS V14.01,2013-01-19 17:10:00,
2013-01-19 10:15:00,9.0,3.5,31.07,NNW,333,0.0,0.0,78,0.00,,---,0.00,VWS V14.01,2013-01-19 17:15:00,
2013-01-19 10:20:00,8.6,2.6,31.07,NNW,333,0.0,0.0,76,0.00,,---,0.00,VWS V14.01,2013-01-19 17:20:00,
2013-01-19 10:26:00,8.6,3.4,31.07,NNW,333,2.0,2.0,79,0.00,,---,0.00,VWS V14.01,2013-01-19 17:26:00,
2013-01-19 10:31:00,9.6,3.8,31.07,NNW,333,2.0,2.0,77,0.00,,---,0.00,VWS V14.01,2013-01-19 17:31:00,
2013-01-19 10:36:00,10.1,4.1,31.06,NNW,333,2.0,2.0,76,0.00,,---,0.00,VWS V14.01,2013-01-19 17:36:00,
2013-01-19 10:41:00,10.7,4.3,31.06,NNW,333,1.0,2.0,75,0.00,,---,0.00,VWS V14.01,2013-01-19 17:41:00,
2013-01-19 10:47:00,11.4,4.7,31.06,NNW,333,0.0,0.0,74,0.00,,---,0.00,VWS V14.01,2013-01-19 17:47:00,
2013-01-19 10:52:00,11.1,4.2,31.05,NNW,333,0.0,0.0,73,0.00,,---,0.00,VWS V14.01,2013-01-19 17:52:00,
2013-01-19 10:58:00,11.6,4.9,31.05,NNW,333,0.0,0.0,74,0.00,,---,0.00,VWS V14.01,2013-01-19 17:58:00,
2013-01-19 11:03:00,12.5,5.2,31.05,NNW,333,0.0,0.0,72,0.00,,---,0.00,VWS V14.01,2013-01-19 18:03:00,
2013-01-19 11:08:00,13.9,5.6,31.05,NNW,333,0.0,0.0,69,0.00,,---,0.00,VWS V14.01,2013-01-19 18:08:00,
2013-01-19 11:13:00,13.3,5.1,31.04,NNW,333,0.0,0.0,69,0.00,,---,0.00,VWS V14.01,2013-01-19 18:13:00,
2013-01-19 11:18:00,15.0,7.6,31.03,NNW,333,0.0,0.0,72,0.00,,---,0.00,VWS V14.01,2013-01-19 18:18:00,
2013-01-19 11:23:00,16.2,7.5,31.03,NNW,333,0.0,0.0,68,0.00,,---,0.00,VWS V14.01,2013-01-19 18:23:00,
2013-01-19 11:28:00,16.7,7.3,31.02,NNW,333,0.0,0.0,66,0.00,,---,0.00,VWS V14.01,2013-01-19 18:28:00,
2013-01-19 11:33:00,15.1,5.5,31.01,NNW,333,2.0,2.0,65,0.00,,---,0.00,VWS V14.01,2013-01-19 18:33:00,
2013-01-19 11:38:00,14.8,6.2,31.00,NNW,333,0.0,1.0,68,0.00,,---,0.00,VWS V14.01,2013-01-19 18:38:00,
2013-01-19 11:43:00,14.3,5.7,31.00,NNW,333,1.0,2.0,68,0.00,,---,0.00,VWS V14.01,2013-01-19 18:43:00,
2013-01-19 11:49:00,14.9,6.6,31.00,NNW,333,0.0,0.0,69,0.00,,---,0.00,VWS V14.01,2013-01-19 18:49:00,
2013-01-19 11:54:00,15.3,6.7,30.99,NNW,333,0.0,0.0,68,0.00,,---,0.00,VWS V14.01,2013-01-19 18:54:00,
2013-01-19 11:59:00,15.6,6.3,30.99,NNW,333,0.0,0.0,66,0.00,,---,0.00,VWS V14.01,2013-01-19 18:59:00,
2013-01-19 12:04:00,16.4,6.7,30.98,NNW,333,0.0,0.0,65,0.00,,---,0.00,VWS V14.01,2013-01-19 19:04:00,
2013-01-19 12:10:00,16.6,6.9,30.98,NNW,333,0.0,0.0,65,0.00,,---,0.00,VWS V14.01,2013-01-19 19:10:00,
2013-01-19 12:15:00,16.9,7.2,30.97,NNW,333,0.0,1.0,65,0.00,,---,0.00,VWS V14.01,2013-01-19 19:15:00,
2013-01-19 12:20:00,17.3,7.6,30.97,NNW,333,1.0,2.0,65,0.00,,---,0.00,VWS V14.01,2013-01-19 19:20:00,
2013-01-19 12:25:00,18.3,8.2,30.96,NNW,333,0.0,0.0,64,0.00,,---,0.00,VWS V14.01,2013-01-19 19:25:00,
2013-01-19 12:30:00,19.3,7.7,30.96,NNW,333,0.0,0.0,60,0.00,,---,0.00,VWS V14.01,2013-01-19 19:30:00,
2013-01-19 12:35:00,19.8,8.5,30.95,NNW,333,0.0,0.0,61,0.00,,---,0.00,VWS V14.01,2013-01-19 19:35:00,
2013-01-19 12:42:00,19.9,7.9,30.95,NNW,333,0.0,2.0,59,0.00,,---,0.00,VWS V14.01,2013-01-19 19:42:00,
2013-01-19 12:47:00,19.2,9.0,30.94,NNW,333,0.0,0.0,64,0.00,,---,0.00,VWS V14.01,2013-01-19 19:47:00,
2013-01-19 12:53:00,20.3,9.4,30.94,NNW,333,0.0,0.0,62,0.00,,---,0.00,VWS V14.01,2013-01-19 19:53:00,
2013-01-19 12:58:00,19.7,7.7,30.94,NNW,333,0.0,0.0,59,0.00,,---,0.00,VWS V14.01,2013-01-19 19:58:00,
2013-01-19 13:03:00,19.6,6.8,30.94,NNW,333,0.0,0.0,57,0.00,,---,0.00,VWS V14.01,2013-01-19 20:03:00,
2013-01-19 13:08:00,20.2,7.4,30.94,NNW,333,0.0,0.0,57,0.00,,---,0.00,VWS V14.01,2013-01-19 20:08:00,
2013-01-19 13:14:00,20.5,8.1,30.93,NNW,333,0.0,2.0,58,0.00,,---,0.00,VWS V14.01,2013-01-19 20:14:00,
2013-01-19 13:19:00,20.6,8.6,30.93,NNW,333,2.0,3.0,59,0.00,,---,0.00,VWS V14.01,2013-01-19 20:19:00,
2013-01-19 13:24:00,20.6,9.3,30.92,NNW,333,3.0,3.0,61,0.00,,---,0.00,VWS V14.01,2013-01-19 20:24:00,
2013-01-19 13:29:00,21.0,6.6,30.92,NNW,333,0.0,0.0,53,0.00,,---,0.00,VWS V14.01,2013-01-19 20:29:00,
2013-01-19 13:34:00,21.4,6.9,30.92,NNW,333,0.0,1.0,53,0.00,,---,0.00,VWS V14.01,2013-01-19 20:34:00,
2013-01-19 13:39:00,21.3,7.3,30.93,ESE,113,4.0,5.0,54,0.00,,---,0.00,VWS V14.01,2013-01-19 20:39:00,
2013-01-19 13:44:00,20.2,7.8,30.93,ESE,113,7.0,7.0,58,0.00,,---,0.00,VWS V14.01,2013-01-19 20:44:00,
2013-01-19 13:49:00,19.6,8.7,30.93,ESE,114,4.0,7.0,62,0.00,,---,0.00,VWS V14.01,2013-01-19 20:49:00,
2013-01-19 13:54:00,18.5,8.0,30.93,ESE,122,3.0,3.0,63,0.00,,---,0.00,VWS V14.01,2013-01-19 20:54:00,
2013-01-19 13:59:00,18.3,8.2,30.93,ESE,122,3.0,3.0,64,0.00,,---,0.00,VWS V14.01,2013-01-19 20:59:00,
2013-01-19 14:04:00,18.4,8.3,30.93,ESE,122,2.0,2.0,64,0.00,,---,0.00,VWS V14.01,2013-01-19 21:04:00,
2013-01-19 14:09:00,18.6,8.8,30.93,ESE,122,2.0,4.0,65,0.00,,---,0.00,VWS V14.01,2013-01-19 21:09:00,
2013-01-19 14:14:00,18.5,8.7,30.93,ESE,122,3.0,4.0,65,0.00,,---,0.00,VWS V14.01,2013-01-19 21:14:00,
2013-01-19 14:20:00,18.3,8.2,30.93,ESE,122,2.0,4.0,64,0.00,,---,0.00,VWS V14.01,2013-01-19 21:20:00,
2013-01-19 14:25:00,18.2,8.4,30.94,ESE,122,1.0,2.0,65,0.00,,---,0.00,VWS V14.01,2013-01-19 21:25:00,
2013-01-19 14:30:00,18.4,8.3,30.94,ESE,121,4.0,4.0,64,0.00,,---,0.00,VWS V14.01,2013-01-19 21:30:00,
2013-01-19 14:36:00,18.3,8.2,30.94,ESE,121,1.0,3.0,64,0.00,,---,0.00,VWS V14.01,2013-01-19 21:36:00,
2013-01-19 14:41:00,18.4,7.9,30.94,ESE,121,0.0,0.0,63,0.00,,---,0.00,VWS V14.01,2013-01-19 21:41:00,
2013-01-19 14:46:00,18.4,7.9,30.94,ESE,121,0.0,0.0,63,0.00,,---,0.00,VWS V14.01,2013-01-19 21:46:00,
2013-01-19 14:52:00,18.2,8.1,30.94,ESE,121,0.0,0.0,64,0.00,,---,0.00,VWS V14.01,2013-01-19 21:52:00,
2013-01-19 14:57:00,19.3,8.8,30.93,ESE,121,0.0,0.0,63,0.00,,---,0.00,VWS V14.01,2013-01-19 21:57:00,
2013-01-19 15:02:00,19.2,8.3,30.94,ESE,121,0.0,0.0,62,0.00,,---,0.00,VWS V14.01,2013-01-19 22:02:00,
2013-01-19 15:07:00,19.2,8.7,30.93,ESE,121,0.0,0.0,63,0.00,,---,0.00,VWS V14.01,2013-01-19 22:07:00,
2013-01-19 15:12:00,20.4,8.4,30.94,ESE,121,0.0,0.0,59,0.00,,---,0.00,VWS V14.01,2013-01-19 22:12:00,
2013-01-19 15:17:00,20.3,7.5,30.93,ESE,121,0.0,0.0,57,0.00,,---,0.00,VWS V14.01,2013-01-19 22:17:00,
2013-01-19 15:23:00,19.9,7.9,30.93,ESE,121,0.0,0.0,59,0.00,,---,0.00,VWS V14.01,2013-01-19 22:23:00,
2013-01-19 15:28:00,20.1,7.3,30.93,ESE,121,0.0,0.0,57,0.00,,---,0.00,VWS V14.01,2013-01-19 22:28:00,
2013-01-19 15:33:00,19.5,7.1,30.93,ESE,121,0.0,0.0,58,0.00,,---,0.00,VWS V14.01,2013-01-19 22:33:00,
2013-01-19 15:38:00,19.7,7.7,30.93,ESE,121,0.0,0.0,59,0.00,,---,0.00,VWS V14.01,2013-01-19 22:38:00,
2013-01-19 15:43:00,19.8,7.8,30.93,ESE,121,0.0,0.0,59,0.00,,---,0.00,VWS V14.01,2013-01-19 22:43:00,
2013-01-19 15:48:00,19.5,9.0,30.93,ESE,121,1.0,2.0,63,0.00,,---,0.00,VWS V14.01,2013-01-19 22:48:00,
2013-01-19 15:53:00,20.1,9.5,30.93,ESE,121,0.0,1.0,63,0.00,,---,0.00,VWS V14.01,2013-01-19 22:53:00,
2013-01-19 15:58:00,19.9,9.4,30.93,ESE,121,0.0,0.0,63,0.00,,---,0.00,VWS V14.01,2013-01-19 22:58:00,
2013-01-19 16:03:00,20.9,9.2,30.93,ESE,121,0.0,0.0,60,0.00,,---,0.00,VWS V14.01,2013-01-19 23:03:00,
2013-01-19 16:08:00,20.4,9.1,30.93,ESE,121,0.0,0.0,61,0.00,,---,0.00,VWS V14.01,2013-01-19 23:08:00,
2013-01-19 16:14:00,20.3,8.3,30.93,ESE,121,0.0,0.0,59,0.00,,---,0.00,VWS V14.01,2013-01-19 23:14:00,
2013-01-19 16:19:00,20.3,8.6,30.93,ESE,121,0.0,0.0,60,0.00,,---,0.00,VWS V14.01,2013-01-19 23:19:00,
2013-01-19 16:24:00,20.7,8.3,30.93,ESE,121,0.0,0.0,58,0.00,,---,0.00,VWS V14.01,2013-01-19 23:24:00,
2013-01-19 16:29:00,18.8,6.9,30.92,ESE,121,0.0,0.0,59,0.00,,---,0.00,VWS V14.01,2013-01-19 23:29:00,
2013-01-19 16:34:00,17.7,7.3,30.93,ESE,121,0.0,0.0,63,0.00,,---,0.00,VWS V14.01,2013-01-19 23:34:00,
2013-01-19 16:39:00,18.3,7.8,30.93,ESE,121,0.0,0.0,63,0.00,,---,0.00,VWS V14.01,2013-01-19 23:39:00,
2013-01-19 16:44:00,18.6,8.1,30.93,ESE,121,0.0,0.0,63,0.00,,---,0.00,VWS V14.01,2013-01-19 23:44:00,
2013-01-19 16:49:00,18.6,7.8,30.93,ESE,121,0.0,0.0,62,0.00,,---,0.00,VWS V14.01,2013-01-19 23:49:00,
2013-01-19 16:54:00,18.3,7.5,30.93,ESE,121,0.0,0.0,62,0.00,,---,0.00,VWS V14.01,2013-01-19 23:54:00,
2013-01-19 17:00:00,17.8,7.0,30.93,ESE,121,3.0,3.0,62,0.00,,---,0.00,VWS V14.01,2013-01-20 00:00:00,
2013-01-19 17:05:00,16.9,5.8,30.93,ESE,103,5.0,5.0,61,0.00,,---,0.00,VWS V14.01,2013-01-20 00:05:00,
2013-01-19 17:10:00,16.3,5.6,30.92,East,99,3.0,6.0,62,0.00,,---,0.00,VWS V14.01,2013-01-20 00:10:00,
2013-01-19 17:15:00,15.4,4.0,30.92,East,98,0.0,1.0,60,0.00,,---,0.00,VWS V14.01,2013-01-20 00:15:00,
2013-01-19 17:20:00,14.9,5.3,30.93,East,98,0.0,0.0,65,0.00,,---,0.00,VWS V14.01,2013-01-20 00:20:00,
2013-01-19 17:25:00,14.6,5.7,30.93,East,98,0.0,0.0,67,0.00,,---,0.00,VWS V14.01,2013-01-20 00:25:00,
2013-01-19 17:30:00,14.5,5.9,30.93,East,98,0.0,0.0,68,0.00,,---,0.00,VWS V14.01,2013-01-20 00:30:00,
2013-01-19 17:35:00,14.3,5.7,30.93,East,98,0.0,0.0,68,0.00,,---,0.00,VWS V14.01,2013-01-20 00:35:00,
2013-01-19 17:40:00,14.2,5.6,30.93,East,98,0.0,0.0,68,0.00,,---,0.00,VWS V14.01,2013-01-20 00:40:00,
2013-01-19 17:45:00,13.9,4.7,30.93,East,98,0.0,1.0,66,0.00,,---,0.00,VWS V14.01,2013-01-20 00:45:00,
2013-01-19 17:50:00,13.6,5.0,30.93,East,98,0.0,1.0,68,0.00,,---,0.00,VWS V14.01,2013-01-20 00:50:00,
2013-01-19 17:55:00,13.4,5.1,30.93,East,98,3.0,3.0,69,0.00,,---,0.00,VWS V14.01,2013-01-20 00:55:00,
2013-01-19 18:00:00,13.2,4.9,30.93,ENE,59,4.0,7.0,69,0.00,,---,0.00,VWS V14.01,2013-01-20 01:00:00,
2013-01-19 18:06:00,12.7,4.8,30.93,North,9,5.0,5.0,70,0.00,,---,0.00,VWS V14.01,2013-01-20 01:06:00,
2013-01-19 18:11:00,12.0,4.1,30.94,NNW,344,9.0,9.0,70,0.00,,---,0.00,VWS V14.01,2013-01-20 01:11:00,
2013-01-19 18:17:00,11.8,4.5,30.94,NNW,340,2.0,2.0,72,0.00,,---,0.00,VWS V14.01,2013-01-20 01:17:00,
2013-01-19 18:22:00,12.0,5.3,30.94,NNW,340,0.0,0.0,74,0.00,,---,0.00,VWS V14.01,2013-01-20 01:22:00,
2013-01-19 18:27:00,12.2,5.2,30.94,NNW,340,0.0,0.0,73,0.00,,---,0.00,VWS V14.01,2013-01-20 01:27:00,
2013-01-19 18:32:00,12.2,4.9,30.94,NNW,340,0.0,0.0,72,0.00,,---,0.00,VWS V14.01,2013-01-20 01:32:00,
2013-01-19 18:37:00,12.2,4.9,30.94,NNW,340,0.0,0.0,72,0.00,,---,0.00,VWS V14.01,2013-01-20 01:37:00,
2013-01-19 18:42:00,12.0,4.7,30.94,NNW,340,2.0,3.0,72,0.00,,---,0.00,VWS V14.01,2013-01-20 01:42:00,
2013-01-19 18:48:00,12.1,5.4,30.94,NNW,340,0.0,0.0,74,0.00,,---,0.00,VWS V14.01,2013-01-20 01:48:00,
2013-01-19 18:53:00,12.2,5.2,30.94,NNW,340,0.0,0.0,73,0.00,,---,0.00,VWS V14.01,2013-01-20 01:53:00,
2013-01-19 18:58:00,11.7,4.1,30.94,NNW,340,1.0,2.0,71,0.00,,---,0.00,VWS V14.01,2013-01-20 01:58:00,
2013-01-19 19:03:00,11.3,4.1,30.94,NNW,340,0.0,0.0,72,0.00,,---,0.00,VWS V14.01,2013-01-20 02:03:00,
2013-01-19 19:09:00,11.0,4.1,30.94,NNW,340,0.0,2.0,73,0.00,,---,0.00,VWS V14.01,2013-01-20 02:09:00,
2013-01-19 19:14:00,11.0,4.6,30.94,NNW,340,0.0,0.0,75,0.00,,---,0.00,VWS V14.01,2013-01-20 02:14:00,
2013-01-19 19:19:00,11.0,4.3,30.94,NNW,340,0.0,0.0,74,0.00,,---,0.00,VWS V14.01,2013-01-20 02:19:00,
2013-01-19 19:24:00,10.7,3.8,30.94,NNW,340,0.0,0.0,73,0.00,,---,0.00,VWS V14.01,2013-01-20 02:24:00,
2013-01-19 19:29:00,10.6,4.5,30.94,NNW,340,0.0,0.0,76,0.00,,---,0.00,VWS V14.01,2013-01-20 02:29:00,
2013-01-19 19:35:00,10.8,5.0,30.94,NNW,336,9.0,9.0,77,0.00,,---,0.00,VWS V14.01,2013-01-20 02:35:00,
2013-01-19 19:40:00,9.8,2.0,30.94,NW,319,3.0,3.0,70,0.00,,---,0.00,VWS V14.01,2013-01-20 02:40:00,
2013-01-19 19:45:00,8.2,1.4,30.94,NW,319,0.0,1.0,73,0.00,,---,0.00,VWS V14.01,2013-01-20 02:45:00,
2013-01-19 19:50:00,8.2,2.8,30.95,NW,319,0.0,0.0,78,0.00,,---,0.00,VWS V14.01,2013-01-20 02:50:00,
2013-01-19 19:55:00,8.3,3.1,30.95,NW,319,0.0,0.0,79,0.00,,---,0.00,VWS V14.01,2013-01-20 02:55:00,
2013-01-19 20:00:00,8.5,3.3,30.95,NW,319,0.0,0.0,79,0.00,,---,0.00,VWS V14.01,2013-01-20 03:00:00,
2013-01-19 20:05:00,8.8,3.9,30.95,NW,319,1.0,1.0,80,0.00,,---,0.00,VWS V14.01,2013-01-20 03:05:00,
2013-01-19 20:10:00,9.1,3.9,30.95,NW,319,1.0,1.0,79,0.00,,---,0.00,VWS V14.01,2013-01-20 03:10:00,
2013-01-19 20:15:00,9.4,3.7,30.95,NNW,327,7.0,9.0,77,0.00,,---,0.00,VWS V14.01,2013-01-20 03:15:00,
2013-01-19 20:20:00,9.9,3.6,30.95,NW,325,9.0,9.0,75,0.00,,---,0.00,VWS V14.01,2013-01-20 03:20:00,
2013-01-19 20:25:00,9.9,3.3,30.95,NW,315,0.0,0.0,74,0.00,,---,0.00,VWS V14.01,2013-01-20 03:25:00,
2013-01-19 20:31:00,9.7,3.4,30.95,NW,315,0.0,0.0,75,0.00,,---,0.00,VWS V14.01,2013-01-20 03:31:00,
2013-01-19 20:36:00,9.4,3.4,30.95,NW,315,0.0,0.0,76,0.00,,---,0.00,VWS V14.01,2013-01-20 03:36:00,
2013-01-19 20:42:00,9.1,3.1,30.95,NW,315,0.0,1.0,76,0.00,,---,0.00,VWS V14.01,2013-01-20 03:42:00,
2013-01-19 20:47:00,9.1,3.7,30.94,NW,315,0.0,1.0,78,0.00,,---,0.00,VWS V14.01,2013-01-20 03:47:00,
2013-01-19 20:52:00,9.1,3.1,30.94,NW,315,0.0,0.0,76,0.00,,---,0.00,VWS V14.01,2013-01-20 03:52:00,
2013-01-19 20:57:00,8.9,2.6,30.94,NW,315,0.0,0.0,75,0.00,,---,0.00,VWS V14.01,2013-01-20 03:57:00,
2013-01-19 21:02:00,8.1,1.5,30.94,NW,315,0.0,0.0,74,0.00,,---,0.00,VWS V14.01,2013-01-20 04:02:00,
2013-01-19 21:07:00,7.6,1.4,30.94,NW,315,0.0,0.0,75,0.00,,---,0.00,VWS V14.01,2013-01-20 04:07:00,
2013-01-19 21:14:00,7.0,1.6,30.94,NW,315,0.0,1.0,78,0.00,,---,0.00,VWS V14.01,2013-01-20 04:14:00,
2013-01-19 21:19:00,6.7,1.6,30.94,NW,315,3.0,3.0,79,0.00,,---,0.00,VWS V14.01,2013-01-20 04:19:00,
2013-01-19 21:24:00,7.5,2.9,30.94,NW,315,1.0,3.0,81,0.00,,---,0.00,VWS V14.01,2013-01-20 04:24:00,
2013-01-19 21:29:00,7.7,2.3,30.94,NW,315,0.0,0.0,78,0.00,,---,0.00,VWS V14.01,2013-01-20 04:29:00,
2013-01-19 21:34:00,6.4,-0.1,30.94,NW,315,0.0,0.0,74,0.00,,---,0.00,VWS V14.01,2013-01-20 04:34:00,
2013-01-19 21:40:00,5.6,0.0,30.95,NW,315,0.0,0.0,77,0.00,,---,0.00,VWS V14.01,2013-01-20 04:40:00,
2013-01-19 21:45:00,5.9,1.3,30.95,NW,315,1.0,2.0,81,0.00,,---,0.00,VWS V14.01,2013-01-20 04:45:00,
2013-01-19 21:50:00,6.7,1.9,30.95,NW,324,7.0,8.0,80,0.00,,---,0.00,VWS V14.01,2013-01-20 04:50:00,
2013-01-19 21:55:00,5.6,-0.9,30.95,NW,324,1.0,2.0,74,0.00,,---,0.00,VWS V14.01,2013-01-20 04:55:00,
2013-01-19 22:00:00,4.9,-0.7,30.95,NW,324,0.0,0.0,77,0.00,,---,0.00,VWS V14.01,2013-01-20 05:00:00,
2013-01-19 22:01:00,4.9,-0.7,30.95,NW,324,0.0,0.0,77,0.00,,---,0.00,VWS V14.01,2013-01-20 05:01:00,
2013-01-19 22:04:00,4.7,-0.6,30.95,NW,324,0.0,0.0,78,0.00,,---,0.00,VWS V14.01,2013-01-20 05:04:00,
2013-01-19 22:09:00,4.9,0.4,30.94,NW,324,1.0,2.0,81,0.00,,---,0.00,VWS V14.01,2013-01-20 05:09:00,
2013-01-19 22:14:00,5.4,0.6,30.94,NW,324,0.0,0.0,80,0.00,,---,0.00,VWS V14.01,2013-01-20 05:14:00,
2013-01-19 22:19:00,5.4,0.3,30.94,NW,324,0.0,0.0,79,0.00,,---,0.00,VWS V14.01,2013-01-20 05:19:00,
2013-01-19 22:24:00,5.2,-0.2,30.94,NW,325,6.0,6.0,78,0.00,,---,0.00,VWS V14.01,2013-01-20 05:24:00,
2013-01-19 22:29:00,5.3,-0.1,30.94,NW,326,3.0,4.0,78,0.00,,---,0.00,VWS V14.01,2013-01-20 05:29:00,
2013-01-19 22:34:00,5.3,-0.3,30.94,NW,326,0.0,1.0,77,0.00,,---,0.00,VWS V14.01,2013-01-20 05:34:00,
2013-01-19 22:39:00,5.1,0.0,30.94,NW,326,0.0,0.0,79,0.00,,---,0.00,VWS V14.01,2013-01-20 05:39:00,
2013-01-19 22:44:00,4.9,-0.2,30.94,NW,326,0.0,0.0,79,0.00,,---,0.00,VWS V14.01,2013-01-20 05:44:00,
2013-01-19 22:49:00,4.7,-0.4,30.95,NW,326,0.0,0.0,79,0.00,,---,0.00,VWS V14.01,2013-01-20 05:49:00,
2013-01-19 22:54:00,4.4,-0.7,30.94,NW,326,4.0,4.0,79,0.00,,---,0.00,VWS V14.01,2013-01-20 05:54:00,
2013-01-19 22:59:00,4.7,-0.1,30.95,NW,326,1.0,1.0,80,0.00,,---,0.00,VWS V14.01,2013-01-20 05:59:00,
2013-01-19 23:04:00,4.7,-0.6,30.95,NW,326,0.0,0.0,78,0.00,,---,0.00,VWS V14.01,2013-01-20 06:04:00,
2013-01-19 23:09:00,4.5,-0.6,30.95,NW,326,0.0,1.0,79,0.00,,---,0.00,VWS V14.01,2013-01-20 06:09:00,
2013-01-19 23:14:00,4.4,-0.4,30.95,NW,326,0.0,0.0,80,0.00,,---,0.00,VWS V14.01,2013-01-20 06:14:00,
2013-01-19 23:19:00,4.3,-0.5,30.94,NW,326,0.0,0.0,80,0.00,,---,0.00,VWS V14.01,2013-01-20 06:19:00,
2013-01-19 23:24:00,4.0,-1.0,30.94,NW,326,0.0,0.0,79,0.00,,---,0.00,VWS V14.01,2013-01-20 06:24:00,
2013-01-19 23:29:00,3.6,-1.4,30.94,NW,326,3.0,5.0,79,0.00,,---,0.00,VWS V14.01,2013-01-20 06:29:00,
2013-01-19 23:34:00,3.5,-1.5,30.94,NW,326,4.0,4.0,79,0.00,,---,0.00,VWS V14.01,2013-01-20 06:34:00,
2013-01-19 23:39:00,3.5,-1.5,30.94,NW,326,2.0,2.0,79,0.00,,---,0.00,VWS V14.01,2013-01-20 06:39:00,
2013-01-19 23:44:00,3.1,-2.2,30.94,NW,326,0.0,0.0,78,0.00,,---,0.00,VWS V14.01,2013-01-20 06:44:00,
2013-01-19 23:49:00,2.8,-2.2,30.94,NW,326,0.0,0.0,79,0.00,,---,0.00,VWS V14.01,2013-01-20 06:49:00,
2013-01-19 23:54:00,2.6,-2.2,30.94,NW,326,0.0,0.0,80,0.00,,---,0.00,VWS V14.01,2013-01-20 06:54:00,
2013-01-19 23:59:00,2.4,-2.1,30.94,NW,326,0.0,1.0,81,0.00,,---,0.00,VWS V14.01,2013-01-20 06:59:00,